sensor_id;sensor_type;location;lat;lon;timestamp;P1;durP1;ratioP1;P2;durP2;ratioP2
7833;SDS011;3962;42.696;23.354;2024-02-04T00:01:26;20.47;;;19.57;;
7833;SDS011;3962;42.696;23.354;2024-02-04T00:03:53;20.20;;;19.30;;
7833;SDS011;3962;42.696;23.354;2024-02-04T00:06:21;19.63;;;18.73;;
7833;SDS011;3962;42.696;23.354;2024-02-04T00:08:48;18.07;;;17.27;;
7833;SDS011;3962;42.696;23.354;2024-02-04T00:11:15;19.03;;;18.17;;
7833;SDS011;3962;42.696;23.354;2024-02-04T00:13:42;16.97;;;16.17;;
7833;SDS011;3962;42.696;23.354;2024-02-04T00:16:09;17.07;;;16.37;;
7833;SDS011;3962;42.696;23.354;2024-02-04T00:18:35;16.43;;;15.73;;
7833;SDS011;3962;42.696;23.354;2024-02-04T00:21:02;15.93;;;15.23;;
7833;SDS011;3962;42.696;23.354;2024-02-04T00:23:30;14.73;;;14.13;;
7833;SDS011;3962;42.696;23.354;2024-02-04T00:25:57;14.57;;;13.97;;
7833;SDS011;3962;42.696;23.354;2024-02-04T00:28:24;15.17;;;14.47;;
7833;SDS011;3962;42.696;23.354;2024-02-04T00:30:53;14.10;;;13.50;;
7833;SDS011;3962;42.696;23.354;2024-02-04T00:33:20;15.10;;;14.40;;
7833;SDS011;3962;42.696;23.354;2024-02-04T00:35:47;15.53;;;14.83;;
7833;SDS011;3962;42.696;23.354;2024-02-04T00:38:14;14.13;;;13.53;;
7833;SDS011;3962;42.696;23.354;2024-02-04T00:40:42;15.33;;;14.63;;
7833;SDS011;3962;42.696;23.354;2024-02-04T00:43:09;13.60;;;13.00;;
7833;SDS011;3962;42.696;23.354;2024-02-04T00:45:36;13.97;;;13.37;;
7833;SDS011;3962;42.696;23.354;2024-02-04T00:48:03;12.80;;;12.23;;
7833;SDS011;3962;42.696;23.354;2024-02-04T00:50:30;14.37;;;13.77;;
7833;SDS011;3962;42.696;23.354;2024-02-04T00:52:57;14.60;;;14.00;;
7833;SDS011;3962;42.696;23.354;2024-02-04T00:55:24;14.83;;;14.23;;
7833;SDS011;3962;42.696;23.354;2024-02-04T00:57:52;12.93;;;12.40;;
7833;SDS011;3962;42.696;23.354;2024-02-04T01:00:20;14.40;;;13.80;;
7833;SDS011;3962;42.696;23.354;2024-02-04T01:02:47;13.97;;;13.37;;
7833;SDS011;3962;42.696;23.354;2024-02-04T01:05:14;15.53;;;14.83;;
7833;SDS011;3962;42.696;23.354;2024-02-04T01:07:41;15.50;;;14.80;;
7833;SDS011;3962;42.696;23.354;2024-02-04T01:10:08;14.20;;;13.60;;
7833;SDS011;3962;42.696;23.354;2024-02-04T01:12:35;14.23;;;13.63;;
7833;SDS011;3962;42.696;23.354;2024-02-04T01:15:04;13.70;;;13.10;;
7833;SDS011;3962;42.696;23.354;2024-02-04T01:17:31;13.50;;;12.90;;
7833;SDS011;3962;42.696;23.354;2024-02-04T01:19:59;13.37;;;12.77;;
7833;SDS011;3962;42.696;23.354;2024-02-04T01:22:25;13.00;;;12.47;;
7833;SDS011;3962;42.696;23.354;2024-02-04T01:24:52;14.87;;;14.17;;
7833;SDS011;3962;42.696;23.354;2024-02-04T01:27:19;12.73;;;12.23;;
7833;SDS011;3962;42.696;23.354;2024-02-04T01:29:46;14.20;;;13.60;;
7833;SDS011;3962;42.696;23.354;2024-02-04T01:32:14;14.30;;;13.70;;
7833;SDS011;3962;42.696;23.354;2024-02-04T01:34:41;12.97;;;12.43;;
7833;SDS011;3962;42.696;23.354;2024-02-04T01:37:08;13.37;;;12.77;;
7833;SDS011;3962;42.696;23.354;2024-02-04T01:39:34;13.63;;;13.03;;
7833;SDS011;3962;42.696;23.354;2024-02-04T01:42:01;13.20;;;12.60;;
7833;SDS011;3962;42.696;23.354;2024-02-04T01:44:28;13.70;;;13.10;;
7833;SDS011;3962;42.696;23.354;2024-02-04T01:46:55;13.03;;;12.47;;
7833;SDS011;3962;42.696;23.354;2024-02-04T01:49:25;13.77;;;13.17;;
7833;SDS011;3962;42.696;23.354;2024-02-04T01:51:52;13.90;;;13.30;;
7833;SDS011;3962;42.696;23.354;2024-02-04T01:54:20;12.90;;;12.37;;
7833;SDS011;3962;42.696;23.354;2024-02-04T01:56:50;13.30;;;12.70;;
7833;SDS011;3962;42.696;23.354;2024-02-04T01:59:20;14.50;;;13.90;;
7833;SDS011;3962;42.696;23.354;2024-02-04T02:01:53;13.73;;;13.13;;
7833;SDS011;3962;42.696;23.354;2024-02-04T02:04:20;13.53;;;12.93;;
7833;SDS011;3962;42.696;23.354;2024-02-04T02:06:49;14.37;;;13.77;;
7833;SDS011;3962;42.696;23.354;2024-02-04T02:09:16;14.43;;;13.83;;
7833;SDS011;3962;42.696;23.354;2024-02-04T02:11:44;15.00;;;14.37;;
7833;SDS011;3962;42.696;23.354;2024-02-04T02:14:14;14.87;;;14.27;;
7833;SDS011;3962;42.696;23.354;2024-02-04T02:16:45;14.50;;;13.90;;
7833;SDS011;3962;42.696;23.354;2024-02-04T02:19:17;15.17;;;14.53;;
7833;SDS011;3962;42.696;23.354;2024-02-04T02:22:02;13.53;;;12.93;;
7833;SDS011;3962;42.696;23.354;2024-02-04T02:24:42;14.00;;;13.30;;
7833;SDS011;3962;42.696;23.354;2024-02-04T02:27:13;13.97;;;13.37;;
7833;SDS011;3962;42.696;23.354;2024-02-04T02:29:39;13.77;;;13.17;;
7833;SDS011;3962;42.696;23.354;2024-02-04T02:32:06;13.13;;;12.57;;
7833;SDS011;3962;42.696;23.354;2024-02-04T02:34:33;14.07;;;13.47;;
7833;SDS011;3962;42.696;23.354;2024-02-04T02:37:03;12.60;;;12.10;;
7833;SDS011;3962;42.696;23.354;2024-02-04T02:39:36;13.97;;;13.37;;
7833;SDS011;3962;42.696;23.354;2024-02-04T02:42:07;13.13;;;12.57;;
7833;SDS011;3962;42.696;23.354;2024-02-04T02:44:38;14.20;;;13.60;;
7833;SDS011;3962;42.696;23.354;2024-02-04T02:47:06;14.40;;;13.80;;
7833;SDS011;3962;42.696;23.354;2024-02-04T02:49:33;12.47;;;11.97;;
7833;SDS011;3962;42.696;23.354;2024-02-04T02:52:00;12.40;;;11.90;;
7833;SDS011;3962;42.696;23.354;2024-02-04T02:54:27;13.53;;;12.93;;
7833;SDS011;3962;42.696;23.354;2024-02-04T02:56:54;14.77;;;14.17;;
7833;SDS011;3962;42.696;23.354;2024-02-04T02:59:22;14.33;;;13.73;;
7833;SDS011;3962;42.696;23.354;2024-02-04T03:01:49;15.30;;;14.60;;
7833;SDS011;3962;42.696;23.354;2024-02-04T03:04:15;15.53;;;14.83;;
7833;SDS011;3962;42.696;23.354;2024-02-04T03:06:42;13.60;;;13.00;;
7833;SDS011;3962;42.696;23.354;2024-02-04T03:09:09;13.57;;;12.97;;
7833;SDS011;3962;42.696;23.354;2024-02-04T03:11:36;14.30;;;13.70;;
7833;SDS011;3962;42.696;23.354;2024-02-04T03:14:03;13.90;;;13.30;;
7833;SDS011;3962;42.696;23.354;2024-02-04T03:16:31;15.47;;;14.77;;
7833;SDS011;3962;42.696;23.354;2024-02-04T03:18:58;13.53;;;12.93;;
7833;SDS011;3962;42.696;23.354;2024-02-04T03:21:24;14.23;;;13.63;;
7833;SDS011;3962;42.696;23.354;2024-02-04T03:23:51;12.93;;;12.40;;
7833;SDS011;3962;42.696;23.354;2024-02-04T03:26:18;13.60;;;13.00;;
7833;SDS011;3962;42.696;23.354;2024-02-04T03:28:45;14.57;;;13.97;;
7833;SDS011;3962;42.696;23.354;2024-02-04T03:31:12;13.37;;;12.77;;
7833;SDS011;3962;42.696;23.354;2024-02-04T03:33:47;12.17;;;11.67;;
7833;SDS011;3962;42.696;23.354;2024-02-04T03:36:15;14.77;;;14.17;;
7833;SDS011;3962;42.696;23.354;2024-02-04T03:38:49;14.93;;;14.33;;
7833;SDS011;3962;42.696;23.354;2024-02-04T03:41:16;13.67;;;13.07;;
7833;SDS011;3962;42.696;23.354;2024-02-04T03:43:43;13.37;;;12.77;;
7833;SDS011;3962;42.696;23.354;2024-02-04T03:46:12;11.90;;;11.40;;
7833;SDS011;3962;42.696;23.354;2024-02-04T03:48:39;12.23;;;11.73;;
7833;SDS011;3962;42.696;23.354;2024-02-04T03:51:07;11.20;;;10.70;;
7833;SDS011;3962;42.696;23.354;2024-02-04T03:53:34;13.37;;;12.77;;
7833;SDS011;3962;42.696;23.354;2024-02-04T03:56:00;12.77;;;12.20;;
7833;SDS011;3962;42.696;23.354;2024-02-04T03:58:27;14.67;;;14.07;;
7833;SDS011;3962;42.696;23.354;2024-02-04T04:00:55;13.87;;;13.27;;
7833;SDS011;3962;42.696;23.354;2024-02-04T04:03:22;13.23;;;12.63;;
7833;SDS011;3962;42.696;23.354;2024-02-04T04:05:49;11.27;;;10.77;;
7833;SDS011;3962;42.696;23.354;2024-02-04T04:08:17;13.70;;;13.10;;
7833;SDS011;3962;42.696;23.354;2024-02-04T04:10:44;13.70;;;13.10;;
7833;SDS011;3962;42.696;23.354;2024-02-04T04:13:11;13.73;;;13.13;;
7833;SDS011;3962;42.696;23.354;2024-02-04T04:15:38;12.50;;;12.00;;
7833;SDS011;3962;42.696;23.354;2024-02-04T04:18:07;13.10;;;12.57;;
7833;SDS011;3962;42.696;23.354;2024-02-04T04:20:35;12.43;;;11.93;;
7833;SDS011;3962;42.696;23.354;2024-02-04T04:23:02;14.77;;;14.17;;
7833;SDS011;3962;42.696;23.354;2024-02-04T04:25:31;12.90;;;12.40;;
7833;SDS011;3962;42.696;23.354;2024-02-04T04:27:57;13.27;;;12.67;;
7833;SDS011;3962;42.696;23.354;2024-02-04T04:30:24;14.13;;;13.53;;
7833;SDS011;3962;42.696;23.354;2024-02-04T04:32:50;14.10;;;13.50;;
7833;SDS011;3962;42.696;23.354;2024-02-04T04:35:17;12.93;;;12.37;;
7833;SDS011;3962;42.696;23.354;2024-02-04T04:37:44;12.97;;;12.43;;
7833;SDS011;3962;42.696;23.354;2024-02-04T04:40:11;13.77;;;13.17;;
7833;SDS011;3962;42.696;23.354;2024-02-04T04:42:40;14.00;;;13.40;;
7833;SDS011;3962;42.696;23.354;2024-02-04T04:45:07;13.27;;;12.67;;
7833;SDS011;3962;42.696;23.354;2024-02-04T04:47:36;13.50;;;12.90;;
7833;SDS011;3962;42.696;23.354;2024-02-04T04:50:02;13.67;;;13.07;;
7833;SDS011;3962;42.696;23.354;2024-02-04T04:52:31;12.63;;;12.13;;
7833;SDS011;3962;42.696;23.354;2024-02-04T04:54:58;13.53;;;12.93;;
7833;SDS011;3962;42.696;23.354;2024-02-04T04:57:24;14.27;;;13.67;;
7833;SDS011;3962;42.696;23.354;2024-02-04T04:59:53;12.77;;;12.27;;
7833;SDS011;3962;42.696;23.354;2024-02-04T05:02:19;12.10;;;11.60;;
7833;SDS011;3962;42.696;23.354;2024-02-04T05:04:46;13.23;;;12.63;;
7833;SDS011;3962;42.696;23.354;2024-02-04T05:07:13;12.77;;;12.17;;
7833;SDS011;3962;42.696;23.354;2024-02-04T05:09:40;13.60;;;13.00;;
7833;SDS011;3962;42.696;23.354;2024-02-04T05:12:08;13.40;;;12.80;;
7833;SDS011;3962;42.696;23.354;2024-02-04T05:14:35;14.30;;;13.70;;
7833;SDS011;3962;42.696;23.354;2024-02-04T05:17:03;11.93;;;11.43;;
7833;SDS011;3962;42.696;23.354;2024-02-04T05:19:30;13.23;;;12.63;;
7833;SDS011;3962;42.696;23.354;2024-02-04T05:21:57;13.90;;;13.30;;
7833;SDS011;3962;42.696;23.354;2024-02-04T05:24:24;13.10;;;12.50;;
7833;SDS011;3962;42.696;23.354;2024-02-04T05:26:51;12.93;;;12.33;;
7833;SDS011;3962;42.696;23.354;2024-02-04T05:29:17;11.80;;;11.30;;
7833;SDS011;3962;42.696;23.354;2024-02-04T05:31:44;14.10;;;13.50;;
7833;SDS011;3962;42.696;23.354;2024-02-04T05:34:13;13.00;;;12.40;;
7833;SDS011;3962;42.696;23.354;2024-02-04T05:36:40;14.00;;;13.40;;
7833;SDS011;3962;42.696;23.354;2024-02-04T05:39:10;14.30;;;13.70;;
7833;SDS011;3962;42.696;23.354;2024-02-04T05:41:37;13.20;;;12.60;;
7833;SDS011;3962;42.696;23.354;2024-02-04T05:44:04;13.53;;;12.93;;
7833;SDS011;3962;42.696;23.354;2024-02-04T05:46:31;12.33;;;11.73;;
7833;SDS011;3962;42.696;23.354;2024-02-04T05:48:58;13.73;;;13.13;;
7833;SDS011;3962;42.696;23.354;2024-02-04T05:51:26;12.03;;;11.53;;
7833;SDS011;3962;42.696;23.354;2024-02-04T05:53:53;12.83;;;12.33;;
7833;SDS011;3962;42.696;23.354;2024-02-04T05:56:20;13.37;;;12.77;;
7833;SDS011;3962;42.696;23.354;2024-02-04T05:58:47;14.23;;;13.63;;
7833;SDS011;3962;42.696;23.354;2024-02-04T06:01:15;14.20;;;13.60;;
7833;SDS011;3962;42.696;23.354;2024-02-04T06:03:42;12.53;;;12.03;;
7833;SDS011;3962;42.696;23.354;2024-02-04T06:06:09;12.30;;;11.80;;
7833;SDS011;3962;42.696;23.354;2024-02-04T06:08:41;14.13;;;13.53;;
7833;SDS011;3962;42.696;23.354;2024-02-04T06:11:09;13.23;;;12.63;;
7833;SDS011;3962;42.696;23.354;2024-02-04T06:13:36;13.73;;;13.13;;
7833;SDS011;3962;42.696;23.354;2024-02-04T06:16:04;13.07;;;12.47;;
7833;SDS011;3962;42.696;23.354;2024-02-04T06:18:32;14.43;;;13.83;;
7833;SDS011;3962;42.696;23.354;2024-02-04T06:20:58;15.70;;;15.00;;
7833;SDS011;3962;42.696;23.354;2024-02-04T06:23:25;14.80;;;14.20;;
7833;SDS011;3962;42.696;23.354;2024-02-04T06:25:53;13.33;;;12.73;;
7833;SDS011;3962;42.696;23.354;2024-02-04T06:28:20;13.43;;;12.83;;
7833;SDS011;3962;42.696;23.354;2024-02-04T06:30:48;15.13;;;14.50;;
7833;SDS011;3962;42.696;23.354;2024-02-04T06:33:15;13.33;;;12.73;;
7833;SDS011;3962;42.696;23.354;2024-02-04T06:35:42;14.00;;;13.40;;
7833;SDS011;3962;42.696;23.354;2024-02-04T06:38:09;14.70;;;14.10;;
7833;SDS011;3962;42.696;23.354;2024-02-04T06:40:36;14.33;;;13.63;;
7833;SDS011;3962;42.696;23.354;2024-02-04T06:43:04;15.00;;;14.40;;
7833;SDS011;3962;42.696;23.354;2024-02-04T06:45:31;14.17;;;13.57;;
7833;SDS011;3962;42.696;23.354;2024-02-04T06:47:57;15.17;;;14.47;;
7833;SDS011;3962;42.696;23.354;2024-02-04T06:50:24;14.77;;;14.17;;
7833;SDS011;3962;42.696;23.354;2024-02-04T06:52:51;13.50;;;12.90;;
7833;SDS011;3962;42.696;23.354;2024-02-04T06:55:18;14.30;;;13.70;;
7833;SDS011;3962;42.696;23.354;2024-02-04T06:57:45;13.93;;;13.33;;
7833;SDS011;3962;42.696;23.354;2024-02-04T07:00:13;13.10;;;12.50;;
7833;SDS011;3962;42.696;23.354;2024-02-04T07:02:42;14.37;;;13.77;;
7833;SDS011;3962;42.696;23.354;2024-02-04T07:05:08;13.03;;;12.43;;
7833;SDS011;3962;42.696;23.354;2024-02-04T07:07:35;13.53;;;12.93;;
7833;SDS011;3962;42.696;23.354;2024-02-04T07:10:02;13.07;;;12.40;;
7833;SDS011;3962;42.696;23.354;2024-02-04T07:12:29;12.30;;;11.80;;
7833;SDS011;3962;42.696;23.354;2024-02-04T07:14:56;12.17;;;11.67;;
7833;SDS011;3962;42.696;23.354;2024-02-04T07:17:25;12.57;;;12.07;;
7833;SDS011;3962;42.696;23.354;2024-02-04T07:19:52;12.30;;;11.80;;
7833;SDS011;3962;42.696;23.354;2024-02-04T07:22:18;11.57;;;11.07;;
7833;SDS011;3962;42.696;23.354;2024-02-04T07:24:45;11.50;;;11.00;;
7833;SDS011;3962;42.696;23.354;2024-02-04T07:27:12;12.07;;;11.57;;
7833;SDS011;3962;42.696;23.354;2024-02-04T07:29:39;13.27;;;12.57;;
7833;SDS011;3962;42.696;23.354;2024-02-04T07:32:06;12.20;;;11.70;;
7833;SDS011;3962;42.696;23.354;2024-02-04T07:34:35;12.90;;;12.40;;
7833;SDS011;3962;42.696;23.354;2024-02-04T07:37:02;13.37;;;12.73;;
7833;SDS011;3962;42.696;23.354;2024-02-04T07:39:29;12.17;;;11.67;;
7833;SDS011;3962;42.696;23.354;2024-02-04T07:41:57;13.47;;;12.87;;
7833;SDS011;3962;42.696;23.354;2024-02-04T07:44:26;11.97;;;11.47;;
7833;SDS011;3962;42.696;23.354;2024-02-04T07:46:53;13.67;;;13.07;;
7833;SDS011;3962;42.696;23.354;2024-02-04T07:49:21;13.10;;;12.50;;
7833;SDS011;3962;42.696;23.354;2024-02-04T07:51:51;12.67;;;12.17;;
7833;SDS011;3962;42.696;23.354;2024-02-04T07:54:18;13.47;;;12.87;;
7833;SDS011;3962;42.696;23.354;2024-02-04T07:56:45;13.73;;;13.13;;
7833;SDS011;3962;42.696;23.354;2024-02-04T07:59:12;13.20;;;12.60;;
7833;SDS011;3962;42.696;23.354;2024-02-04T08:01:39;13.47;;;12.87;;
7833;SDS011;3962;42.696;23.354;2024-02-04T08:04:07;12.13;;;11.63;;
7833;SDS011;3962;42.696;23.354;2024-02-04T08:06:37;13.83;;;13.23;;
7833;SDS011;3962;42.696;23.354;2024-02-04T08:09:05;13.53;;;12.93;;
7833;SDS011;3962;42.696;23.354;2024-02-04T08:11:33;12.80;;;12.30;;
7833;SDS011;3962;42.696;23.354;2024-02-04T08:14:00;12.93;;;12.33;;
7833;SDS011;3962;42.696;23.354;2024-02-04T08:16:27;12.03;;;11.53;;
7833;SDS011;3962;42.696;23.354;2024-02-04T08:18:54;14.70;;;14.00;;
7833;SDS011;3962;42.696;23.354;2024-02-04T08:21:21;14.07;;;13.47;;
7833;SDS011;3962;42.696;23.354;2024-02-04T08:23:50;13.73;;;13.10;;
7833;SDS011;3962;42.696;23.354;2024-02-04T08:26:18;11.47;;;10.97;;
7833;SDS011;3962;42.696;23.354;2024-02-04T08:28:45;11.47;;;10.97;;
7833;SDS011;3962;42.696;23.354;2024-02-04T08:31:12;12.67;;;12.07;;
7833;SDS011;3962;42.696;23.354;2024-02-04T08:33:39;12.97;;;12.37;;
7833;SDS011;3962;42.696;23.354;2024-02-04T08:36:06;12.60;;;12.10;;
7833;SDS011;3962;42.696;23.354;2024-02-04T08:38:35;12.27;;;11.77;;
7833;SDS011;3962;42.696;23.354;2024-02-04T08:41:02;13.33;;;12.73;;
7833;SDS011;3962;42.696;23.354;2024-02-04T08:43:31;11.80;;;11.30;;
7833;SDS011;3962;42.696;23.354;2024-02-04T08:45:57;12.47;;;11.87;;
7833;SDS011;3962;42.696;23.354;2024-02-04T08:48:25;13.00;;;12.47;;
7833;SDS011;3962;42.696;23.354;2024-02-04T08:50:52;11.33;;;10.83;;
7833;SDS011;3962;42.696;23.354;2024-02-04T08:53:20;10.97;;;10.43;;
7833;SDS011;3962;42.696;23.354;2024-02-04T08:55:50;12.13;;;11.63;;
7833;SDS011;3962;42.696;23.354;2024-02-04T08:58:17;12.27;;;11.67;;
7833;SDS011;3962;42.696;23.354;2024-02-04T09:00:46;10.97;;;10.47;;
7833;SDS011;3962;42.696;23.354;2024-02-04T09:03:13;10.77;;;10.27;;
7833;SDS011;3962;42.696;23.354;2024-02-04T09:05:40;11.93;;;11.43;;
7833;SDS011;3962;42.696;23.354;2024-02-04T09:08:07;12.20;;;11.50;;
7833;SDS011;3962;42.696;23.354;2024-02-04T09:10:36;11.47;;;10.97;;
7833;SDS011;3962;42.696;23.354;2024-02-04T09:13:03;12.30;;;11.70;;
7833;SDS011;3962;42.696;23.354;2024-02-04T09:15:30;11.87;;;11.37;;
7833;SDS011;3962;42.696;23.354;2024-02-04T09:17:58;13.20;;;12.60;;
7833;SDS011;3962;42.696;23.354;2024-02-04T09:20:25;11.60;;;11.10;;
7833;SDS011;3962;42.696;23.354;2024-02-04T09:22:52;11.13;;;10.63;;
7833;SDS011;3962;42.696;23.354;2024-02-04T09:25:19;11.30;;;10.80;;
7833;SDS011;3962;42.696;23.354;2024-02-04T09:27:46;12.50;;;11.90;;
7833;SDS011;3962;42.696;23.354;2024-02-04T09:30:13;12.40;;;11.80;;
7833;SDS011;3962;42.696;23.354;2024-02-04T09:32:40;10.43;;;10.00;;
7833;SDS011;3962;42.696;23.354;2024-02-04T09:35:08;11.07;;;10.57;;
7833;SDS011;3962;42.696;23.354;2024-02-04T09:37:35;11.73;;;11.20;;
7833;SDS011;3962;42.696;23.354;2024-02-04T09:40:02;11.23;;;10.73;;
7833;SDS011;3962;42.696;23.354;2024-02-04T09:42:30;11.33;;;10.83;;
7833;SDS011;3962;42.696;23.354;2024-02-04T09:44:57;11.67;;;11.07;;
7833;SDS011;3962;42.696;23.354;2024-02-04T09:47:24;11.67;;;11.17;;
7833;SDS011;3962;42.696;23.354;2024-02-04T09:49:52;11.50;;;11.00;;
7833;SDS011;3962;42.696;23.354;2024-02-04T09:52:25;11.03;;;10.53;;
7833;SDS011;3962;42.696;23.354;2024-02-04T09:54:55;12.93;;;12.37;;
7833;SDS011;3962;42.696;23.354;2024-02-04T09:57:25;9.70;;;9.30;;
7833;SDS011;3962;42.696;23.354;2024-02-04T09:59:52;12.10;;;11.40;;
7833;SDS011;3962;42.696;23.354;2024-02-04T10:02:20;10.93;;;10.43;;
7833;SDS011;3962;42.696;23.354;2024-02-04T10:04:48;11.40;;;10.90;;
7833;SDS011;3962;42.696;23.354;2024-02-04T10:07:15;11.77;;;11.27;;
7833;SDS011;3962;42.696;23.354;2024-02-04T10:09:45;11.00;;;10.50;;
7833;SDS011;3962;42.696;23.354;2024-02-04T10:12:12;10.67;;;10.20;;
7833;SDS011;3962;42.696;23.354;2024-02-04T10:14:40;10.97;;;10.47;;
7833;SDS011;3962;42.696;23.354;2024-02-04T10:17:06;12.90;;;12.07;;
7833;SDS011;3962;42.696;23.354;2024-02-04T10:19:34;11.90;;;11.40;;
7833;SDS011;3962;42.696;23.354;2024-02-04T10:22:01;10.57;;;10.17;;
7833;SDS011;3962;42.696;23.354;2024-02-04T10:24:28;10.80;;;10.30;;
7833;SDS011;3962;42.696;23.354;2024-02-04T10:26:57;11.07;;;10.57;;
7833;SDS011;3962;42.696;23.354;2024-02-04T10:29:24;10.97;;;10.47;;
7833;SDS011;3962;42.696;23.354;2024-02-04T10:31:52;10.97;;;10.47;;
7833;SDS011;3962;42.696;23.354;2024-02-04T10:34:20;10.63;;;10.03;;
7833;SDS011;3962;42.696;23.354;2024-02-04T10:36:47;9.77;;;9.37;;
7833;SDS011;3962;42.696;23.354;2024-02-04T10:39:14;12.20;;;11.60;;
7833;SDS011;3962;42.696;23.354;2024-02-04T10:41:42;11.17;;;10.67;;
7833;SDS011;3962;42.696;23.354;2024-02-04T10:44:16;10.67;;;10.27;;
7833;SDS011;3962;42.696;23.354;2024-02-04T10:46:44;10.13;;;9.73;;
7833;SDS011;3962;42.696;23.354;2024-02-04T10:49:14;10.60;;;10.13;;
7833;SDS011;3962;42.696;23.354;2024-02-04T10:51:42;11.00;;;10.50;;
7833;SDS011;3962;42.696;23.354;2024-02-04T10:54:09;11.27;;;10.77;;
7833;SDS011;3962;42.696;23.354;2024-02-04T10:56:41;10.97;;;10.47;;
7833;SDS011;3962;42.696;23.354;2024-02-04T10:59:10;12.03;;;11.53;;
7833;SDS011;3962;42.696;23.354;2024-02-04T11:01:38;10.37;;;9.97;;
7833;SDS011;3962;42.696;23.354;2024-02-04T11:04:06;10.70;;;10.20;;
7833;SDS011;3962;42.696;23.354;2024-02-04T11:06:36;11.97;;;11.33;;
7833;SDS011;3962;42.696;23.354;2024-02-04T11:09:07;10.40;;;9.97;;
7833;SDS011;3962;42.696;23.354;2024-02-04T11:11:37;10.13;;;9.73;;
7833;SDS011;3962;42.696;23.354;2024-02-04T11:14:06;10.43;;;10.03;;
7833;SDS011;3962;42.696;23.354;2024-02-04T11:16:50;12.63;;;11.90;;
7833;SDS011;3962;42.696;23.354;2024-02-04T11:19:33;11.43;;;10.93;;
7833;SDS011;3962;42.696;23.354;2024-02-04T11:22:15;11.30;;;10.80;;
7833;SDS011;3962;42.696;23.354;2024-02-04T11:24:54;12.27;;;11.77;;
7833;SDS011;3962;42.696;23.354;2024-02-04T11:27:35;12.37;;;11.87;;
7833;SDS011;3962;42.696;23.354;2024-02-04T11:30:03;12.10;;;11.60;;
7833;SDS011;3962;42.696;23.354;2024-02-04T11:32:34;10.43;;;9.97;;
7833;SDS011;3962;42.696;23.354;2024-02-04T11:35:01;9.57;;;9.07;;
7833;SDS011;3962;42.696;23.354;2024-02-04T11:37:32;10.97;;;10.47;;
7833;SDS011;3962;42.696;23.354;2024-02-04T11:39:59;10.47;;;10.07;;
7833;SDS011;3962;42.696;23.354;2024-02-04T11:42:31;10.80;;;10.40;;
7833;SDS011;3962;42.696;23.354;2024-02-04T11:45:07;10.37;;;9.97;;
7833;SDS011;3962;42.696;23.354;2024-02-04T11:47:37;11.10;;;10.60;;
7833;SDS011;3962;42.696;23.354;2024-02-04T11:50:08;9.70;;;9.30;;
7833;SDS011;3962;42.696;23.354;2024-02-04T11:52:38;11.77;;;11.27;;
7833;SDS011;3962;42.696;23.354;2024-02-04T11:55:06;11.23;;;10.73;;
7833;SDS011;3962;42.696;23.354;2024-02-04T11:57:40;10.43;;;9.93;;
7833;SDS011;3962;42.696;23.354;2024-02-04T12:00:07;9.70;;;9.30;;
7833;SDS011;3962;42.696;23.354;2024-02-04T12:02:37;11.23;;;10.73;;
7833;SDS011;3962;42.696;23.354;2024-02-04T12:05:04;10.43;;;10.03;;
7833;SDS011;3962;42.696;23.354;2024-02-04T12:07:32;11.07;;;10.57;;
7833;SDS011;3962;42.696;23.354;2024-02-04T12:09:59;11.77;;;11.27;;
7833;SDS011;3962;42.696;23.354;2024-02-04T12:12:26;10.43;;;9.93;;
7833;SDS011;3962;42.696;23.354;2024-02-04T12:14:53;11.13;;;10.60;;
7833;SDS011;3962;42.696;23.354;2024-02-04T12:17:20;10.07;;;9.67;;
7833;SDS011;3962;42.696;23.354;2024-02-04T12:19:49;9.97;;;9.57;;
7833;SDS011;3962;42.696;23.354;2024-02-04T12:22:16;9.27;;;8.87;;
7833;SDS011;3962;42.696;23.354;2024-02-04T12:24:43;9.97;;;9.57;;
7833;SDS011;3962;42.696;23.354;2024-02-04T12:27:12;9.53;;;9.13;;
7833;SDS011;3962;42.696;23.354;2024-02-04T12:29:42;11.07;;;10.57;;
7833;SDS011;3962;42.696;23.354;2024-02-04T12:32:09;10.83;;;10.33;;
7833;SDS011;3962;42.696;23.354;2024-02-04T12:34:36;12.60;;;12.07;;
7833;SDS011;3962;42.696;23.354;2024-02-04T12:37:07;11.23;;;10.73;;
7833;SDS011;3962;42.696;23.354;2024-02-04T12:39:34;11.17;;;10.67;;
7833;SDS011;3962;42.696;23.354;2024-02-04T12:42:01;11.27;;;10.77;;
7833;SDS011;3962;42.696;23.354;2024-02-04T12:44:28;11.13;;;10.63;;
7833;SDS011;3962;42.696;23.354;2024-02-04T12:46:55;10.97;;;10.47;;
7833;SDS011;3962;42.696;23.354;2024-02-04T12:49:22;10.17;;;9.70;;
7833;SDS011;3962;42.696;23.354;2024-02-04T12:51:50;9.57;;;9.17;;
7833;SDS011;3962;42.696;23.354;2024-02-04T12:54:19;10.10;;;9.70;;
7833;SDS011;3962;42.696;23.354;2024-02-04T12:56:47;9.40;;;9.00;;
7833;SDS011;3962;42.696;23.354;2024-02-04T12:59:24;10.03;;;9.63;;
7833;SDS011;3962;42.696;23.354;2024-02-04T13:01:53;8.97;;;8.57;;
7833;SDS011;3962;42.696;23.354;2024-02-04T13:04:23;11.03;;;10.53;;
7833;SDS011;3962;42.696;23.354;2024-02-04T13:06:51;11.70;;;11.20;;
7833;SDS011;3962;42.696;23.354;2024-02-04T13:09:19;11.10;;;10.60;;
7833;SDS011;3962;42.696;23.354;2024-02-04T13:11:48;11.07;;;10.57;;
7833;SDS011;3962;42.696;23.354;2024-02-04T13:14:15;10.60;;;10.20;;
7833;SDS011;3962;42.696;23.354;2024-02-04T13:16:42;9.23;;;8.83;;
7833;SDS011;3962;42.696;23.354;2024-02-04T13:19:09;11.43;;;10.93;;
7833;SDS011;3962;42.696;23.354;2024-02-04T13:21:36;9.87;;;9.47;;
7833;SDS011;3962;42.696;23.354;2024-02-04T13:24:03;10.03;;;9.63;;
7833;SDS011;3962;42.696;23.354;2024-02-04T13:26:32;10.70;;;10.30;;
7833;SDS011;3962;42.696;23.354;2024-02-04T13:28:58;9.53;;;9.13;;
7833;SDS011;3962;42.696;23.354;2024-02-04T13:31:25;10.00;;;9.60;;
7833;SDS011;3962;42.696;23.354;2024-02-04T13:33:53;9.67;;;9.27;;
7833;SDS011;3962;42.696;23.354;2024-02-04T13:36:21;10.77;;;10.30;;
7833;SDS011;3962;42.696;23.354;2024-02-04T13:38:49;10.97;;;10.47;;
7833;SDS011;3962;42.696;23.354;2024-02-04T13:41:15;11.00;;;10.50;;
7833;SDS011;3962;42.696;23.354;2024-02-04T13:43:43;11.43;;;10.93;;
7833;SDS011;3962;42.696;23.354;2024-02-04T13:46:10;11.33;;;10.83;;
7833;SDS011;3962;42.696;23.354;2024-02-04T13:48:37;10.13;;;9.67;;
7833;SDS011;3962;42.696;23.354;2024-02-04T13:51:04;11.70;;;11.20;;
7833;SDS011;3962;42.696;23.354;2024-02-04T13:53:31;10.60;;;10.13;;
7833;SDS011;3962;42.696;23.354;2024-02-04T13:55:59;10.50;;;9.97;;
7833;SDS011;3962;42.696;23.354;2024-02-04T13:58:26;11.03;;;10.53;;
7833;SDS011;3962;42.696;23.354;2024-02-04T14:00:54;11.07;;;10.57;;
7833;SDS011;3962;42.696;23.354;2024-02-04T14:03:21;11.57;;;11.00;;
7833;SDS011;3962;42.696;23.354;2024-02-04T14:05:51;10.73;;;10.23;;
7833;SDS011;3962;42.696;23.354;2024-02-04T14:08:20;11.87;;;11.37;;
7833;SDS011;3962;42.696;23.354;2024-02-04T14:10:47;11.33;;;10.83;;
7833;SDS011;3962;42.696;23.354;2024-02-04T14:13:14;9.93;;;9.53;;
7833;SDS011;3962;42.696;23.354;2024-02-04T14:15:41;11.67;;;11.17;;
7833;SDS011;3962;42.696;23.354;2024-02-04T14:18:09;12.30;;;11.70;;
7833;SDS011;3962;42.696;23.354;2024-02-04T14:20:36;11.20;;;10.70;;
7833;SDS011;3962;42.696;23.354;2024-02-04T14:23:03;11.13;;;10.63;;
7833;SDS011;3962;42.696;23.354;2024-02-04T14:25:30;11.20;;;10.70;;
7833;SDS011;3962;42.696;23.354;2024-02-04T14:27:57;11.23;;;10.73;;
7833;SDS011;3962;42.696;23.354;2024-02-04T14:30:24;10.57;;;10.07;;
7833;SDS011;3962;42.696;23.354;2024-02-04T14:32:51;12.37;;;11.87;;
7833;SDS011;3962;42.696;23.354;2024-02-04T14:35:19;10.37;;;9.97;;
7833;SDS011;3962;42.696;23.354;2024-02-04T14:37:46;11.37;;;10.87;;
7833;SDS011;3962;42.696;23.354;2024-02-04T14:40:13;12.10;;;11.53;;